TAF LFSL
METAR LFSL
LFSL 080330Z AUTO 20005KT 170V250 9999 -RA SCT003/// BKN007/// BKN011/// ///CB 06/06 Q1003 TEMPO 4000 SHRA BKN004 SCT020TCU=
LFSL 080300Z AUTO 16003KT 9999 BKN008/// BKN086/// BKN110/// ///CB 05/04 Q1003 TEMPO 4000 SHRA BKN004 SCT020TCU=
LFSL 080230Z AUTO 13003KT 100V250 9999 FEW026/// SCT052/// BKN098/// ///TCU 06/04 Q1003 TEMPO 4000 SHRA BKN004 SCT020TCU=
LFSL 080200Z AUTO 19003KT 9999 FEW003 SCT049 BKN068 07/06 Q1004=
LFSL 080130Z AUTO 19003KT 9999 FEW003 OVC100 07/07 Q1004=
WC LFSL
WS LFSL
WV LFSL